Medford, WI (54451)

4:05 PM CDT on March 30, 2017 (GMT -0500)
near Northwest side of Medford | | Change Station

Elev 1470 ft 45.14 °N, 90.35 °W | Updated 12 seconds ago

Overcast
Overcast
41.5 °F
Feels Like 37 °F
N
6.5
Wind Variable Wind from West
Gusts 9.8 mph

Today
High -- | Low -- °F
--% Chance of Precip.
Yesterday
High -- | Low -- °F
Precip. -- in
Pressure 29.81 in
Visibility 10.0 miles
Clouds Overcast 1100 ft
Windchill 37 °F
Dew Point 31 °F
Humidity 65%
Rainfall 0.00 in
Snow Depth Not available.
6:45 AM 7:27 PM
Waxing Crescent, 10% visible
METAR KMDZ 302055Z AUTO 07011G20KT 10SM OVC011 04/01 A2981 RMK AO2 T00370010
Pressure 29.81 in
Visibility 10.0 miles
Clouds Overcast 1100 ft
Windchill 37 °F
Dew Point 31 °F
Humidity 65%
Rainfall 0.00 in
Snow Depth Not available.
6:45 AM 7:27 PM
Waxing Crescent, 10% visible
METAR KMDZ 302055Z AUTO 07011G20KT 10SM OVC011 04/01 A2981 RMK AO2 T00370010

Get Severe Weather Alerts

Thanks for signing up!

Be on the lookout for a verification email in your inbox.

You'll start receiving the daily forecast at 8 AM.

×

10-Day Weather Forecast

Almanac

Astronomy

Mar. 30, 2017 Rise Set
Actual Time
Civil Twilight
Nautical Twilight
Astronomical Twilight
Moon
Length of Visible Light
Length of Day
Tomorrow will be .
, % of the Moon is Illuminated

Today's Extremes

State Highs State Lows

Community

WunderPhotos

Upload Photos

1,962,540 photos uploaded!

WunderBlog® & News

Nearby

Air Quality

  Air Quality AQ Index Pollutant
Not available.

Snow Depth

Station Depth Elevation

Earthquake Activity

City Distance Mag. Time & Date
Minimum magnitude displayed is 2.5.

Earthquake Activity

City Distance Mag. Time & Date
Minimum magnitude displayed is 2.5.

Coastal Water Temperatures

Place Temperature

Stations

Nearby Weather Stations

Station Location Temp. Windchill Dew Point Humidity Wind Precip. Elev Updated Type
                   

Watches & Warnings

There are currently no watches in effect.